ルレオ の空港の天気 - METARとTAF

Lulea / Kallax ( ESPA / LLA ) - スウェーデン ルレオ
飛行場実況気象(Metar)
観測時間05/29 17:20 CEST (05/29 15:20 UTC)
風向・風速北北西 7m/s
視程10km以上
天気現象
なし
気温16℃
湿度39%
気圧1023hPa
METARESPA 291520Z 33013KT 310V010 CAVOK 16/02 Q1023
過去の天気等 Google飛行場航空写真 Wunderground天気予報

過去48時間のMETAR

飛行場予報(TAF)
発表時間: 5/29 16:30 CEST (5/29 14:30 UTC)
予報対象時間: 29日17時 CEST ~ 29日21時 CEST
風向・風速北北西 7m/s
視程10km以上
なし
TAF ESPA 291430Z 2915/2919 33014KT CAVOK